Time;durP1;ratioP1;P1;durP2;ratioP2;P2;SDS_P1;SDS_P2;PMS_P1;PMS_P2;Temp;Humidity;BMP_temperature;BMP_pressure;BME280_temperature;BME280_humidity;BME280_pressure;Samples;Min_cycle;Max_cycle;Signal;HPM_P1;HPM_P2
2022/07/22 00:00:15;;;;;;;5.05;2.70;;;;;;;-148.14;100.00;65945.72;5013239;28;20034;-90
2022/07/22 00:02:41;;;;;;;4.97;2.60;;;;;;;-148.14;100.00;65945.72;5017928;28;20040;-89
2022/07/22 00:05:10;;;;;;;7.00;2.70;;;;;;;-148.14;100.00;65945.72;5016310;28;20095;-88
2022/07/22 00:07:40;;;;;;;3.30;2.60;;;;;;;-148.14;100.00;65945.72;5018318;28;20033;-89
2022/07/22 00:10:13;;;;;;;6.53;2.63;;;;;;;-148.14;100.00;65945.72;5030010;28;20030;-91
2022/07/22 00:12:40;;;;;;;4.93;2.97;;;;;;;-148.14;100.00;65945.72;5042713;28;20030;-89
2022/07/22 00:15:10;;;;;;;5.88;2.80;;;;;;;-148.14;100.00;65945.72;5006119;28;20034;-89
2022/07/22 00:17:38;;;;;;;10.85;3.33;;;;;;;-148.14;100.00;65945.72;5026161;28;20041;-88
2022/07/22 00:20:06;;;;;;;4.28;2.55;;;;;;;-148.14;100.00;65945.72;5019603;28;20038;-89
2022/07/22 00:22:32;;;;;;;4.63;2.42;;;;;;;-148.14;100.00;65945.72;5014644;28;20025;-88
2022/07/22 00:24:58;;;;;;;5.35;2.80;;;;;;;-148.14;100.00;65945.72;5015867;28;20043;-89
2022/07/22 00:27:24;;;;;;;4.38;2.70;;;;;;;-148.14;100.00;65945.72;5003559;28;20034;-88
2022/07/22 00:29:50;;;;;;;6.80;2.75;;;;;;;-148.14;100.00;65945.72;5018346;28;20033;-89
2022/07/22 00:32:16;;;;;;;4.90;2.53;;;;;;;-148.14;100.00;65945.72;5036692;28;20076;-88
2022/07/22 00:34:42;;;;;;;4.85;3.13;;;;;;;-148.14;100.00;65945.72;5030511;28;20030;-87
2022/07/22 00:37:08;;;;;;;4.38;2.55;;;;;;;-148.14;100.00;65945.72;5003752;28;20119;-86
2022/07/22 00:39:34;;;;;;;6.72;2.60;;;;;;;-148.14;100.00;65945.72;5027269;28;20061;-85
2022/07/22 00:42:00;;;;;;;5.63;2.95;;;;;;;-148.14;100.00;65945.72;5002079;28;20033;-85
2022/07/22 00:44:26;;;;;;;7.25;2.92;;;;;;;-148.14;100.00;65945.72;4987317;28;20034;-86
2022/07/22 00:46:52;;;;;;;5.25;2.95;;;;;;;-148.14;100.00;65945.72;4999739;28;20035;-86
2022/07/22 00:49:17;;;;;;;4.53;2.88;;;;;;;-148.14;100.00;65945.72;5005946;28;20022;-85
2022/07/22 00:51:45;;;;;;;3.13;2.40;;;;;;;-148.14;100.00;65945.72;5003387;28;20029;-85
2022/07/22 00:54:11;;;;;;;5.88;2.67;;;;;;;-148.14;100.00;65945.72;5000603;28;20497;-85
2022/07/22 00:56:37;;;;;;;6.63;3.20;;;;;;;-148.14;100.00;65945.72;4981848;28;20117;-84
2022/07/22 00:59:11;;;;;;;3.35;3.03;;;;;;;-148.14;100.00;65945.72;5006880;28;20120;-84
2022/07/22 01:01:37;;;;;;;3.95;2.95;;;;;;;-148.14;100.00;65945.72;5004065;28;20026;-85
2022/07/22 01:04:03;;;;;;;6.13;3.08;;;;;;;-148.14;100.00;65945.72;4986739;28;20057;-85
2022/07/22 01:06:29;;;;;;;5.03;3.10;;;;;;;-148.14;100.00;65945.72;5008200;28;20046;-84
2022/07/22 01:08:56;;;;;;;4.85;2.92;;;;;;;-148.14;100.00;65945.72;5000115;28;20060;-85
2022/07/22 01:11:22;;;;;;;5.97;3.05;;;;;;;-148.14;100.00;65945.72;4980967;28;20042;-86
2022/07/22 01:13:48;;;;;;;7.07;3.40;;;;;;;-148.14;100.00;65945.72;4984918;28;20026;-85
2022/07/22 01:16:16;;;;;;;5.47;3.42;;;;;;;-148.14;100.00;65945.72;5003703;28;20033;-86
2022/07/22 01:18:42;;;;;;;5.88;3.45;;;;;;;-148.14;100.00;65945.72;5005060;28;20497;-85
2022/07/22 01:21:09;;;;;;;4.25;2.88;;;;;;;-148.14;100.00;65945.72;5005303;28;20040;-86
2022/07/22 01:23:37;;;;;;;5.10;3.20;;;;;;;-148.14;100.00;65945.72;4988655;28;20049;-86
2022/07/22 01:26:04;;;;;;;4.47;3.33;;;;;;;-148.14;100.00;65945.72;4987431;28;20038;-86
2022/07/22 01:28:30;;;;;;;5.72;3.00;;;;;;;-148.14;100.00;65945.72;4994017;28;20034;-88
2022/07/22 01:30:55;;;;;;;7.35;3.63;;;;;;;-148.14;100.00;65945.72;5005899;28;20034;-87
2022/07/22 01:33:21;;;;;;;7.32;3.55;;;;;;;-148.14;100.00;65945.72;5001186;28;20117;-86
2022/07/22 01:35:47;;;;;;;6.35;3.75;;;;;;;-148.14;100.00;65945.72;5002461;28;20041;-87
2022/07/22 01:38:14;;;;;;;4.00;2.90;;;;;;;-148.14;100.00;65945.72;5007134;28;20384;-87
2022/07/22 01:40:42;;;;;;;5.90;3.15;;;;;;;-148.14;100.00;65945.72;4972657;28;20043;-86
2022/07/22 01:43:08;;;;;;;5.35;2.90;;;;;;;-148.14;100.00;65945.72;5014306;28;20100;-87
2022/07/22 01:45:34;;;;;;;5.60;3.28;;;;;;;-148.14;100.00;65945.72;5004322;28;20099;-86
2022/07/22 01:48:00;;;;;;;3.10;2.80;;;;;;;-148.14;100.00;65945.72;5010706;28;20026;-86
2022/07/22 01:50:26;;;;;;;7.03;3.63;;;;;;;-148.14;100.00;65945.72;5027377;28;20024;-86
2022/07/22 01:52:51;;;;;;;5.60;3.30;;;;;;;-148.14;100.00;65945.72;5007659;28;20111;-84
2022/07/22 01:55:17;;;;;;;3.90;3.10;;;;;;;-148.14;100.00;65945.72;5030974;28;20029;-85
2022/07/22 01:57:43;;;;;;;8.70;3.10;;;;;;;-148.14;100.00;65945.72;5023137;28;20369;-83
2022/07/22 02:00:11;;;;;;;4.40;2.85;;;;;;;-148.14;100.00;65945.72;5019798;28;20026;-85
2022/07/22 02:02:37;;;;;;;3.72;3.00;;;;;;;-148.14;100.00;65945.72;5027329;28;20033;-85
2022/07/22 02:05:05;;;;;;;6.03;3.30;;;;;;;-148.14;100.00;65945.72;5024208;28;20044;-86
2022/07/22 02:07:30;;;;;;;4.72;2.97;;;;;;;-148.14;100.00;65945.72;5019599;28;20033;-84
2022/07/22 02:09:56;;;;;;;5.35;2.80;;;;;;;-148.14;100.00;65945.72;5020616;28;20025;-85
2022/07/22 02:12:22;;;;;;;3.80;3.20;;;;;;;-148.14;100.00;65945.72;5018986;28;20369;-86
2022/07/22 02:14:48;;;;;;;7.60;3.17;;;;;;;-148.14;100.00;65945.72;5001680;28;20026;-86
2022/07/22 02:17:14;;;;;;;4.70;3.20;;;;;;;-148.14;100.00;65945.72;5009771;28;20029;-84
2022/07/22 02:19:40;;;;;;;5.82;2.78;;;;;;;-148.14;100.00;65945.72;5020007;28;20022;-87
2022/07/22 02:22:06;;;;;;;6.78;3.03;;;;;;;-148.14;100.00;65945.72;5027855;28;20518;-85
2022/07/22 02:24:31;;;;;;;7.32;2.80;;;;;;;-148.14;100.00;65945.72;5026335;28;20030;-87
2022/07/22 02:26:57;;;;;;;6.20;3.30;;;;;;;-148.14;100.00;65945.72;5009686;28;20041;-88
2022/07/22 02:29:23;;;;;;;4.97;3.15;;;;;;;-148.14;100.00;65945.72;5000192;28;20029;-87
2022/07/22 02:31:48;;;;;;;5.82;3.40;;;;;;;-148.14;100.00;65945.72;5007549;28;20030;-86
2022/07/22 02:34:15;;;;;;;5.53;3.15;;;;;;;-148.14;100.00;65945.72;5022185;28;20034;-86
2022/07/22 02:36:41;;;;;;;3.47;3.05;;;;;;;-148.14;100.00;65945.72;5030848;28;20035;-88
2022/07/22 02:39:07;;;;;;;5.32;3.47;;;;;;;-148.14;100.00;65945.72;4984761;28;20041;-83
2022/07/22 02:41:33;;;;;;;4.35;3.55;;;;;;;-148.14;100.00;65945.72;5003132;28;20046;-84
2022/07/22 02:43:59;;;;;;;7.85;3.92;;;;;;;-148.14;100.00;65945.72;5005641;28;20045;-84
2022/07/22 02:46:28;;;;;;;8.30;3.88;;;;;;;-148.14;100.00;65945.72;5022343;28;20472;-86
2022/07/22 02:48:54;;;;;;;9.85;3.92;;;;;;;-148.14;100.00;65945.72;5017259;28;20026;-84
2022/07/22 02:51:21;;;;;;;4.65;3.75;;;;;;;-148.14;100.00;65945.72;5021002;28;20472;-84
2022/07/22 02:53:46;;;;;;;5.70;4.30;;;;;;;-148.14;100.00;65945.72;5005127;28;20068;-87
2022/07/22 02:56:12;;;;;;;4.78;4.03;;;;;;;-148.14;100.00;65945.72;5010443;28;20029;-86
2022/07/22 02:58:39;;;;;;;6.30;4.28;;;;;;;-148.14;100.00;65945.72;5024000;28;20030;-84
2022/07/22 03:01:05;;;;;;;8.07;3.92;;;;;;;-148.14;100.00;65945.72;4991218;28;20545;-87
2022/07/22 03:03:31;;;;;;;9.82;4.82;;;;;;;-148.14;100.00;65945.72;5023874;28;20026;-87
2022/07/22 03:05:57;;;;;;;8.43;4.50;;;;;;;-148.14;100.00;65945.72;5022613;28;20109;-86
2022/07/22 03:08:23;;;;;;;9.40;4.70;;;;;;;-148.14;100.00;65945.72;5005173;28;20033;-85
2022/07/22 03:10:49;;;;;;;7.75;4.75;;;;;;;-148.14;100.00;65945.72;5022815;28;20037;-87
2022/07/22 03:13:15;;;;;;;8.10;4.80;;;;;;;-148.14;100.00;65945.72;5026789;28;20383;-88
2022/07/22 03:15:40;;;;;;;8.40;4.63;;;;;;;-148.14;100.00;65945.72;4994234;28;20368;-87
2022/07/22 03:18:06;;;;;;;10.00;4.25;;;;;;;-148.14;100.00;65945.72;5006953;28;20034;-87
2022/07/22 03:20:33;;;;;;;7.75;4.63;;;;;;;-148.14;100.00;65945.72;4992006;28;20040;-86
2022/07/22 03:22:59;;;;;;;7.70;4.97;;;;;;;-148.14;100.00;65945.72;5021791;28;20464;-86
2022/07/22 03:25:24;;;;;;;7.35;4.55;;;;;;;-148.14;100.00;65945.72;5021699;28;20034;-88
2022/07/22 03:27:50;;;;;;;9.32;4.90;;;;;;;-148.14;100.00;65945.72;5020456;28;20030;-87
2022/07/22 03:30:16;;;;;;;7.78;4.38;;;;;;;-148.14;100.00;65945.72;5005576;28;20050;-86
2022/07/22 03:32:46;;;;;;;7.38;4.10;;;;;;;-148.14;100.00;65945.72;5019790;28;20029;-86
2022/07/22 03:35:13;;;;;;;7.88;4.75;;;;;;;-148.14;100.00;65945.72;5006682;28;20042;-89
2022/07/22 03:37:39;;;;;;;7.78;4.05;;;;;;;-148.14;100.00;65945.72;5015536;28;20468;-87
2022/07/22 03:40:05;;;;;;;6.68;4.18;;;;;;;-148.14;100.00;65945.72;5006581;28;20033;-86
2022/07/22 03:42:31;;;;;;;6.68;4.20;;;;;;;-148.14;100.00;65945.72;5030345;28;20064;-87
2022/07/22 03:44:56;;;;;;;6.15;4.13;;;;;;;-148.14;100.00;65945.72;5027279;28;20030;-86
2022/07/22 03:47:24;;;;;;;5.38;4.32;;;;;;;-148.14;100.00;65945.72;5024383;28;20034;-89
2022/07/22 03:49:51;;;;;;;8.80;4.30;;;;;;;-148.14;100.00;65945.72;5027809;28;20034;-88
2022/07/22 03:52:16;;;;;;;9.35;4.57;;;;;;;-148.14;100.00;65945.72;5011767;28;20034;-89
2022/07/22 03:54:43;;;;;;;9.57;4.38;;;;;;;-148.14;100.00;65945.72;5016191;28;20122;-87
2022/07/22 03:57:10;;;;;;;6.45;4.22;;;;;;;-148.14;100.00;65945.72;5025817;28;20160;-84
2022/07/22 03:59:37;;;;;;;5.10;3.83;;;;;;;-148.14;100.00;65945.72;5006789;28;20090;-84
2022/07/22 04:02:03;;;;;;;7.88;3.97;;;;;;;-148.14;100.00;65945.72;4989649;28;20036;-85
2022/07/22 04:04:32;;;;;;;6.88;4.40;;;;;;;-148.14;100.00;65945.72;5030402;28;20057;-85
2022/07/22 04:07:03;;;;;;;6.55;4.03;;;;;;;-148.14;100.00;65945.72;5014247;28;20036;-87
2022/07/22 04:09:29;;;;;;;7.28;4.38;;;;;;;-148.14;100.00;65945.72;5035371;28;20030;-85
2022/07/22 04:11:55;;;;;;;7.53;4.22;;;;;;;-148.14;100.00;65945.72;5022150;28;20036;-85
2022/07/22 04:14:21;;;;;;;5.78;4.50;;;;;;;-148.14;100.00;65945.72;5042622;28;20039;-84
2022/07/22 04:16:48;;;;;;;6.75;4.53;;;;;;;-148.14;100.00;65945.72;5024022;28;20034;-86
2022/07/22 04:19:14;;;;;;;7.80;4.38;;;;;;;-148.14;100.00;65945.72;5041237;28;20052;-85
2022/07/22 04:21:39;;;;;;;8.13;4.80;;;;;;;-148.14;100.00;65945.72;5025541;28;20021;-84
2022/07/22 04:24:06;;;;;;;10.32;4.32;;;;;;;-148.14;100.00;65945.72;5033764;28;20064;-87
2022/07/22 04:26:32;;;;;;;7.38;4.22;;;;;;;-148.14;100.00;65945.72;5014359;28;20518;-86
2022/07/22 04:28:58;;;;;;;8.20;3.83;;;;;;;-148.14;100.00;65945.72;4996667;28;20025;-87
2022/07/22 04:31:24;;;;;;;7.93;4.00;;;;;;;-148.14;100.00;65945.72;5029139;28;20437;-84
2022/07/22 04:33:50;;;;;;;5.40;3.60;;;;;;;-148.14;100.00;65945.72;5029198;28;20030;-87
2022/07/22 04:36:16;;;;;;;6.90;4.55;;;;;;;-148.14;100.00;65945.72;5014538;28;20048;-84
2022/07/22 04:38:42;;;;;;;8.55;4.07;;;;;;;-148.14;100.00;65945.72;5010150;28;20049;-85
2022/07/22 04:41:07;;;;;;;5.80;3.70;;;;;;;-148.14;100.00;65945.72;5011018;28;20041;-86
2022/07/22 04:43:33;;;;;;;8.20;4.10;;;;;;;-148.14;100.00;65945.72;4995951;28;20062;-85
2022/07/22 04:46:03;;;;;;;7.85;4.03;;;;;;;-148.14;100.00;65945.72;5022302;28;20104;-83
2022/07/22 04:48:29;;;;;;;5.50;3.72;;;;;;;-148.14;100.00;65945.72;5025618;28;20058;-84
2022/07/22 04:50:59;;;;;;;8.77;4.18;;;;;;;-148.14;100.00;65945.72;5004989;28;20025;-85
2022/07/22 04:53:25;;;;;;;7.32;3.95;;;;;;;-148.14;100.00;65945.72;5022904;28;20105;-85
2022/07/22 04:55:51;;;;;;;5.28;3.50;;;;;;;-148.14;100.00;65945.72;5007952;28;20033;-86
2022/07/22 04:58:18;;;;;;;11.77;4.00;;;;;;;-148.14;100.00;65945.72;5022015;28;20040;-85
2022/07/22 05:00:43;;;;;;;5.78;3.80;;;;;;;-148.14;100.00;65945.72;5024298;28;20030;-85
2022/07/22 05:03:09;;;;;;;5.45;4.45;;;;;;;-148.14;100.00;65945.72;5024987;28;20030;-85
2022/07/22 05:05:35;;;;;;;5.65;3.90;;;;;;;-148.14;100.00;65945.72;5007541;28;20029;-85
2022/07/22 05:08:00;;;;;;;6.45;3.50;;;;;;;-148.14;100.00;65945.72;5008462;28;20036;-87
2022/07/22 05:10:27;;;;;;;9.70;3.67;;;;;;;-148.14;100.00;65945.72;5027434;28;20026;-85
2022/07/22 05:12:53;;;;;;;9.50;4.00;;;;;;;-148.14;100.00;65945.72;5007498;28;20184;-85
2022/07/22 05:15:19;;;;;;;8.85;4.43;;;;;;;-148.14;100.00;65945.72;5005174;28;20097;-87
2022/07/22 05:17:45;;;;;;;5.78;4.15;;;;;;;-148.14;100.00;65945.72;5006973;28;20387;-86
2022/07/22 05:20:11;;;;;;;5.47;3.83;;;;;;;-148.14;100.00;65945.72;5011429;28;20040;-85
2022/07/22 05:22:37;;;;;;;5.43;3.67;;;;;;;-148.14;100.00;65945.72;5027203;28;20029;-88
2022/07/22 05:25:03;;;;;;;7.40;4.07;;;;;;;-148.14;100.00;65945.72;5007555;28;20031;-85
2022/07/22 05:27:29;;;;;;;5.32;4.40;;;;;;;-148.14;100.00;65945.72;5027309;28;20502;-89
2022/07/22 05:29:56;;;;;;;4.22;3.83;;;;;;;-148.14;100.00;65945.72;5008538;28;20034;-85
2022/07/22 05:32:21;;;;;;;7.00;4.00;;;;;;;-148.14;100.00;65945.72;4989608;28;20030;-87
2022/07/22 05:34:47;;;;;;;6.43;3.83;;;;;;;-148.14;100.00;65945.72;5003489;28;20555;-84
2022/07/22 05:37:13;;;;;;;7.28;4.43;;;;;;;-148.14;100.00;65945.72;5022174;28;20061;-85
2022/07/22 05:39:38;;;;;;;8.50;4.20;;;;;;;-148.14;100.00;65945.72;5022070;28;20126;-86
2022/07/22 05:42:04;;;;;;;6.88;4.50;;;;;;;-148.14;100.00;65945.72;5029029;28;20040;-88
2022/07/22 05:44:30;;;;;;;7.38;5.72;;;;;;;-148.14;100.00;65945.72;5033390;28;20026;-87
2022/07/22 05:46:55;;;;;;;9.73;5.93;;;;;;;-148.14;100.00;65945.72;5020385;28;20029;-87
2022/07/22 05:49:21;;;;;;;9.07;5.80;;;;;;;-148.14;100.00;65945.72;5031558;28;20018;-86
2022/07/22 05:51:47;;;;;;;8.10;5.53;;;;;;;-148.14;100.00;65945.72;5027133;28;20545;-86
2022/07/22 05:54:12;;;;;;;10.07;6.50;;;;;;;-148.14;100.00;65945.72;5002042;28;20025;-84
2022/07/22 05:56:38;;;;;;;9.80;7.05;;;;;;;-148.14;100.00;65945.72;5004534;28;20508;-88
2022/07/22 05:59:04;;;;;;;10.38;6.10;;;;;;;-148.14;100.00;65945.72;5021060;28;20036;-87
2022/07/22 06:01:29;;;;;;;8.80;5.70;;;;;;;-148.14;100.00;65945.72;4990610;28;20503;-87
2022/07/22 06:03:55;;;;;;;9.88;6.40;;;;;;;-148.14;100.00;65945.72;5025436;28;20026;-86
2022/07/22 06:06:20;;;;;;;9.48;6.10;;;;;;;-148.14;100.00;65945.72;5023869;28;20025;-86
2022/07/22 06:08:46;;;;;;;7.72;6.63;;;;;;;-148.14;100.00;65945.72;5022689;28;20079;-86
2022/07/22 06:11:12;;;;;;;8.88;6.30;;;;;;;-148.14;100.00;65945.72;5002134;28;20025;-87
2022/07/22 06:13:37;;;;;;;8.43;6.60;;;;;;;-148.14;100.00;65945.72;5027486;28;20353;-86
2022/07/22 06:16:04;;;;;;;8.05;5.40;;;;;;;-148.14;100.00;65945.72;5025409;28;20124;-87
2022/07/22 06:18:29;;;;;;;9.93;5.53;;;;;;;-148.14;100.00;65945.72;5023493;28;20033;-86
2022/07/22 06:20:55;;;;;;;7.82;6.43;;;;;;;-148.14;100.00;65945.72;5021628;28;20030;-87
2022/07/22 06:23:24;;;;;;;14.07;6.47;;;;;;;-148.14;100.00;65945.72;4988354;28;20034;-88
2022/07/22 06:25:49;;;;;;;10.35;6.20;;;;;;;-148.14;100.00;65945.72;5023629;28;20362;-86
2022/07/22 06:28:15;;;;;;;14.02;6.47;;;;;;;-148.14;100.00;65945.72;5007349;28;20057;-86
2022/07/22 06:30:41;;;;;;;10.00;5.90;;;;;;;-148.14;100.00;65945.72;5008901;28;20030;-88
2022/07/22 06:33:07;;;;;;;9.45;5.95;;;;;;;-148.14;100.00;65945.72;4991519;28;20026;-87
2022/07/22 06:35:33;;;;;;;10.68;6.40;;;;;;;-148.14;100.00;65945.72;5029037;28;20089;-88
2022/07/22 06:37:59;;;;;;;7.70;5.88;;;;;;;-148.14;100.00;65945.72;5010325;28;20037;-87
2022/07/22 06:40:35;;;;;;;7.00;5.10;;;;;;;-148.14;100.00;65945.72;4991319;28;20464;-89
2022/07/22 06:43:02;;;;;;;8.88;5.55;;;;;;;-148.14;100.00;65945.72;4987742;28;20050;-89
2022/07/22 06:45:28;;;;;;;7.70;5.40;;;;;;;-148.14;100.00;65945.72;5029923;28;20021;-88
2022/07/22 06:47:54;;;;;;;7.78;5.65;;;;;;;-148.14;100.00;65945.72;5029650;28;20064;-89
2022/07/22 06:50:20;;;;;;;12.63;5.95;;;;;;;-148.14;100.00;65945.72;5026995;28;20026;-86
2022/07/22 06:52:45;;;;;;;11.98;6.30;;;;;;;-148.14;100.00;65945.72;5025640;28;20109;-88
2022/07/22 06:55:11;;;;;;;11.63;5.43;;;;;;;-148.14;100.00;65945.72;5028939;28;20028;-89
2022/07/22 06:57:38;;;;;;;9.82;6.00;;;;;;;-148.14;100.00;65945.72;5022521;28;20431;-87
2022/07/22 07:00:06;;;;;;;9.73;6.07;;;;;;;-148.14;100.00;65945.72;5036751;28;20022;-89
2022/07/22 07:02:32;;;;;;;9.98;5.88;;;;;;;-148.14;100.00;65945.72;4989176;28;20045;-88
2022/07/22 07:04:58;;;;;;;7.25;5.47;;;;;;;-148.14;100.00;65945.72;5007173;28;20032;-87
2022/07/22 07:07:24;;;;;;;8.70;5.63;;;;;;;-148.14;100.00;65945.72;5028557;28;20029;-87
2022/07/22 07:09:50;;;;;;;12.02;5.50;;;;;;;-148.14;100.00;65945.72;5020521;28;20373;-87
2022/07/22 07:12:16;;;;;;;9.10;5.80;;;;;;;-148.14;100.00;65945.72;5021583;28;20036;-86
2022/07/22 07:14:42;;;;;;;7.50;5.32;;;;;;;-148.14;100.00;65945.72;5008494;28;20033;-84
2022/07/22 07:17:07;;;;;;;11.88;6.72;;;;;;;-148.14;100.00;65945.72;5025297;28;20029;-86
2022/07/22 07:19:33;;;;;;;11.35;5.72;;;;;;;-148.14;100.00;65945.72;5007652;28;20053;-89
2022/07/22 07:21:59;;;;;;;9.10;6.38;;;;;;;-148.14;100.00;65945.72;5009183;28;20094;-87
2022/07/22 07:24:25;;;;;;;10.85;5.72;;;;;;;-148.14;100.00;65945.72;5006642;28;20042;-86
2022/07/22 07:26:50;;;;;;;7.55;5.78;;;;;;;-148.14;100.00;65945.72;5024054;28;20452;-87
2022/07/22 07:29:16;;;;;;;11.60;5.40;;;;;;;-148.14;100.00;65945.72;5028486;28;20053;-86
2022/07/22 07:31:42;;;;;;;10.80;5.47;;;;;;;-148.14;100.00;65945.72;5028185;28;20087;-86
2022/07/22 07:34:08;;;;;;;8.13;4.97;;;;;;;-148.14;100.00;65945.72;5028098;28;20025;-87
2022/07/22 07:36:39;;;;;;;8.57;4.93;;;;;;;-148.14;100.00;65945.72;5025992;28;20040;-86
2022/07/22 07:39:08;;;;;;;8.90;4.88;;;;;;;-148.14;100.00;65945.72;5004920;28;20053;-87
2022/07/22 07:41:37;;;;;;;8.13;4.72;;;;;;;-148.14;100.00;65945.72;5005477;28;20030;-84
2022/07/22 07:44:02;;;;;;;6.70;4.50;;;;;;;-148.14;100.00;65945.72;5026991;28;20038;-86
2022/07/22 07:46:28;;;;;;;8.30;4.25;;;;;;;-148.14;100.00;65945.72;5008350;28;20388;-85
2022/07/22 07:48:53;;;;;;;6.47;4.03;;;;;;;-148.14;100.00;65945.72;5006572;28;20509;-84
2022/07/22 07:51:19;;;;;;;5.57;4.15;;;;;;;-148.14;100.00;65945.72;5020352;28;20057;-86
2022/07/22 07:53:45;;;;;;;8.68;4.85;;;;;;;-148.14;100.00;65945.72;5022154;28;20341;-85
2022/07/22 07:56:11;;;;;;;6.68;4.22;;;;;;;-148.14;100.00;65945.72;5023809;28;20393;-85
2022/07/22 07:58:37;;;;;;;5.05;4.20;;;;;;;-148.14;100.00;65945.72;5025550;28;20025;-84
2022/07/22 08:01:02;;;;;;;8.00;4.40;;;;;;;-148.14;100.00;65945.72;5019347;28;20128;-84
2022/07/22 08:03:28;;;;;;;5.40;4.00;;;;;;;-148.14;100.00;65945.72;5018172;28;20022;-84
2022/07/22 08:05:55;;;;;;;5.60;4.10;;;;;;;-148.14;100.00;65945.72;5016213;28;20495;-86
2022/07/22 08:08:20;;;;;;;6.13;4.80;;;;;;;-148.14;100.00;65945.72;5024612;28;20034;-85
2022/07/22 08:10:46;;;;;;;5.63;4.70;;;;;;;-148.14;100.00;65945.72;5024659;28;20371;-86
2022/07/22 08:13:11;;;;;;;8.88;5.40;;;;;;;-148.14;100.00;65945.72;5019258;28;20030;-86
2022/07/22 08:15:37;;;;;;;7.25;5.05;;;;;;;-148.14;100.00;65945.72;5024425;28;20029;-85
2022/07/22 08:18:03;;;;;;;6.80;5.45;;;;;;;-148.14;100.00;65945.72;5007444;28;20029;-86
2022/07/22 08:20:29;;;;;;;5.85;5.00;;;;;;;-148.14;100.00;65945.72;5023211;28;20204;-84
2022/07/22 08:22:55;;;;;;;6.65;5.20;;;;;;;-148.14;100.00;65945.72;5004402;28;20061;-85
2022/07/22 08:25:21;;;;;;;5.15;4.20;;;;;;;-148.14;100.00;65945.72;5004108;28;20033;-86
2022/07/22 08:27:47;;;;;;;8.95;5.03;;;;;;;-148.14;100.00;65945.72;5025622;28;20048;-86
2022/07/22 08:30:13;;;;;;;6.75;4.68;;;;;;;-148.14;100.00;65945.72;5025682;28;20116;-86
2022/07/22 08:32:39;;;;;;;10.98;5.25;;;;;;;-148.14;100.00;65945.72;5020776;28;20029;-85
2022/07/22 08:35:06;;;;;;;5.68;5.03;;;;;;;-148.14;100.00;65945.72;5014765;28;20533;-86
2022/07/22 08:37:32;;;;;;;7.65;5.53;;;;;;;-148.14;100.00;65945.72;5028232;28;20061;-86
2022/07/22 08:39:58;;;;;;;5.18;4.68;;;;;;;-148.14;100.00;65945.72;4991588;28;20539;-86
2022/07/22 08:42:24;;;;;;;7.95;4.82;;;;;;;-148.14;100.00;65945.72;5022310;28;20042;-86
2022/07/22 08:44:52;;;;;;;6.05;4.43;;;;;;;-148.14;100.00;65945.72;5021556;28;20033;-86
2022/07/22 08:47:24;;;;;;;5.50;4.93;;;;;;;-148.14;100.00;65945.72;5026408;28;20030;-86
2022/07/22 08:49:50;;;;;;;5.63;5.07;;;;;;;-148.14;100.00;65945.72;5024659;28;20418;-86
2022/07/22 08:52:16;;;;;;;7.25;4.60;;;;;;;-148.14;100.00;65945.72;5025486;28;20034;-85
2022/07/22 08:54:42;;;;;;;6.75;4.70;;;;;;;-148.14;100.00;65945.72;5027388;28;20061;-86
2022/07/22 08:57:08;;;;;;;8.30;5.13;;;;;;;-148.14;100.00;65945.72;5025232;28;20036;-86
2022/07/22 08:59:49;;;;;;;7.13;4.38;;;;;;;-148.14;100.00;65945.72;5008298;28;20029;-83
2022/07/22 09:02:14;;;;;;;5.85;3.83;;;;;;;-148.14;100.00;65945.72;5026076;28;20059;-83
2022/07/22 09:05:01;;;;;;;3.97;3.40;;;;;;;-148.14;100.00;65945.72;5026510;28;20033;-84
2022/07/22 09:07:29;;;;;;;5.65;3.78;;;;;;;-148.14;100.00;65945.72;5006083;28;20491;-84
2022/07/22 09:09:56;;;;;;;6.10;4.78;;;;;;;-148.14;100.00;65945.72;5005198;28;20105;-85
2022/07/22 09:12:22;;;;;;;9.32;5.10;;;;;;;-148.14;100.00;65945.72;5023197;28;20056;-85
2022/07/22 09:14:53;;;;;;;6.32;4.10;;;;;;;-148.14;100.00;65945.72;5020826;28;20034;-84
2022/07/22 09:17:36;;;;;;;5.13;3.72;;;;;;;-148.14;100.00;65945.72;5017254;28;20041;-84
2022/07/22 09:20:25;;;;;;;4.25;3.85;;;;;;;-148.14;100.00;65945.72;5007712;28;20128;-84
2022/07/22 09:22:51;;;;;;;7.25;4.15;;;;;;;-148.14;100.00;65945.72;5006767;28;20543;-85
2022/07/22 09:25:25;;;;;;;5.13;4.00;;;;;;;-148.14;100.00;65945.72;5001585;28;20030;-84
2022/07/22 09:28:11;;;;;;;4.57;3.55;;;;;;;-148.14;100.00;65945.72;5020576;28;20113;-82
2022/07/22 09:30:50;;;;;;;4.60;4.00;;;;;;;-148.14;100.00;65945.72;5025725;28;20412;-83
2022/07/22 09:33:16;;;;;;;4.53;4.10;;;;;;;-148.14;100.00;65945.72;5018417;28;20118;-82
2022/07/22 09:35:46;;;;;;;6.10;3.78;;;;;;;-148.14;100.00;65945.72;5020748;28;20048;-83
2022/07/22 09:38:16;;;;;;;4.40;3.97;;;;;;;-148.14;100.00;65945.72;5006391;28;20435;-82
2022/07/22 09:40:45;;;;;;;4.70;3.92;;;;;;;-148.14;100.00;65945.72;5019337;28;20025;-83
2022/07/22 09:43:19;;;;;;;3.97;3.63;;;;;;;-148.14;100.00;65945.72;5018335;28;20095;-83
2022/07/22 09:45:53;;;;;;;5.18;3.85;;;;;;;-148.14;100.00;65945.72;5015200;28;20026;-84
2022/07/22 09:48:21;;;;;;;7.85;3.90;;;;;;;-148.14;100.00;65945.72;5000556;28;20089;-86
2022/07/22 09:50:57;;;;;;;4.93;4.05;;;;;;;-148.14;100.00;65945.72;5019841;28;20053;-83
2022/07/22 09:53:27;;;;;;;7.25;3.60;;;;;;;-148.14;100.00;65945.72;5011783;28;20048;-83
2022/07/22 09:55:57;;;;;;;7.25;3.85;;;;;;;-148.14;100.00;65945.72;5002394;28;20087;-82
2022/07/22 09:58:27;;;;;;;4.97;3.47;;;;;;;-148.14;100.00;65945.72;5022880;28;20028;-83
2022/07/22 10:01:03;;;;;;;5.63;3.83;;;;;;;-148.14;100.00;65945.72;5022192;28;20037;-84
2022/07/22 10:03:32;;;;;;;4.35;3.95;;;;;;;-148.14;100.00;65945.72;5005500;28;20353;-84
2022/07/22 10:05:59;;;;;;;7.97;4.30;;;;;;;-148.14;100.00;65945.72;5021072;28;20488;-84
2022/07/22 10:08:27;;;;;;;7.60;4.35;;;;;;;-148.14;100.00;65945.72;5002966;28;20041;-85
2022/07/22 10:10:55;;;;;;;5.50;4.47;;;;;;;-148.14;100.00;65945.72;5023893;28;20037;-84
2022/07/22 10:13:22;;;;;;;6.05;4.47;;;;;;;-148.14;100.00;65945.72;5005962;28;20119;-86
2022/07/22 10:15:48;;;;;;;8.32;4.93;;;;;;;-148.14;100.00;65945.72;5025206;28;20029;-84
2022/07/22 10:18:16;;;;;;;4.85;4.20;;;;;;;-148.14;100.00;65945.72;5023434;28;20033;-81
2022/07/22 10:20:42;;;;;;;8.27;4.45;;;;;;;-148.14;100.00;65945.72;5004472;28;20034;-83
2022/07/22 10:23:10;;;;;;;5.40;4.30;;;;;;;-148.14;100.00;65945.72;5004320;28;20030;-81
2022/07/22 10:25:58;;;;;;;4.88;4.40;;;;;;;-148.14;100.00;65945.72;5002468;28;20057;-84
2022/07/22 10:28:27;;;;;;;7.20;4.90;;;;;;;-148.14;100.00;65945.72;5003265;28;20483;-83
2022/07/22 10:31:26;;;;;;;7.20;5.50;;;;;;;-148.14;100.00;65945.72;5006833;28;20121;-83
2022/07/22 10:33:59;;;;;;;6.72;4.90;;;;;;;-148.14;100.00;65945.72;5019270;28;20034;-83
2022/07/22 10:36:33;;;;;;;12.45;5.45;;;;;;;-148.14;100.00;65945.72;5024238;28;20044;-82
2022/07/22 10:39:11;;;;;;;6.00;4.97;;;;;;;-148.14;100.00;65945.72;5022573;28;20491;-83
2022/07/22 10:41:45;;;;;;;6.68;5.15;;;;;;;-148.14;100.00;65945.72;5007069;28;20124;-83
2022/07/22 10:44:12;;;;;;;6.68;5.35;;;;;;;-148.14;100.00;65945.72;5002684;28;20033;-83
2022/07/22 10:46:58;;;;;;;8.00;5.20;;;;;;;-148.14;100.00;65945.72;5024642;28;20490;-83
2022/07/22 10:49:27;;;;;;;8.60;5.18;;;;;;;-148.14;100.00;65945.72;5021649;28;20057;-82
2022/07/22 10:52:22;;;;;;;7.00;5.30;;;;;;;-148.14;100.00;65945.72;5002202;28;20485;-83
2022/07/22 10:55:15;;;;;;;7.35;5.25;;;;;;;-148.14;100.00;65945.72;5022996;28;20029;-82
2022/07/22 10:57:41;;;;;;;7.18;5.45;;;;;;;-148.14;100.00;65945.72;4988317;28;20388;-85
2022/07/22 11:00:38;;;;;;;5.55;5.00;;;;;;;-148.14;100.00;65945.72;5022829;28;20034;-83
2022/07/22 11:03:04;;;;;;;4.90;4.47;;;;;;;-148.14;100.00;65945.72;5004396;28;20049;-84
2022/07/22 11:05:30;;;;;;;7.18;5.20;;;;;;;-148.14;100.00;65945.72;5016691;28;20030;-83
2022/07/22 11:07:56;;;;;;;9.00;5.90;;;;;;;-148.14;100.00;65945.72;5003461;28;20045;-83
2022/07/22 11:10:21;;;;;;;23.17;8.00;;;;;;;-148.14;100.00;65945.72;5003610;28;20034;-84